^^
Garrymore Weather Station Historical Data
Daily Summary for October 25, 2020 Units:  Metric    English   Both
Daily Weekly Monthly Yearly Custom
  High: Low: Average:
Temperature: 11 °C 5 °C 7.6 °C
Dew Point: 4 °C -24 °C 2.7 °C
Humidity: 86% 10% 73%
Wind Speed: 93km/h 0km/h 12.9km/h
Wind Gust: 93km/h - -
Wind- - South
Pressure: 993.19 hPa 987.81 hPa -
Precipitation: 0 mm    
Historical Graphs
 
 
Tabular Data for October 25, 2020
Time Temperature Dew Point Pressure Wind Wind Speed Wind Gust Humidity Rainfall Rate (Hourly) solar
00:00 5 °C 2 °C 989.81 hPa SE 5 km/h 92 km/h 82% 0 mm 0 W/m2
00:05 5 °C 2 °C 989.81 hPa ESE 5 km/h 11 km/h 82% 0 mm 0 W/m2
00:10 5 °C -10 °C 989.77 hPa E 66 km/h 93 km/h 32% 0 mm 0 W/m2
00:15 5 °C -24 °C 989.71 hPa E 93 km/h 93 km/h 10% 0 mm 0 W/m2
00:20 5 °C -24 °C 989.5 hPa E 93 km/h 93 km/h 10% 0 mm 0 W/m2
00:25 5 °C 2 °C 989.4 hPa E 10 km/h 93 km/h 81% 0 mm 0 W/m2
00:30 5 °C 2 °C 989.4 hPa SE 11 km/h 14 km/h 81% 0 mm 0 W/m2
00:35 5 °C 2 °C 989.2 hPa SSE 10 km/h 14 km/h 81% 0 mm 0 W/m2
00:40 5 °C 2 °C 989.03 hPa SSE 8 km/h 11 km/h 81% 0 mm 0 W/m2
00:45 6 °C 3 °C 989.2 hPa SSE 5 km/h 13 km/h 81% 0 mm 0 W/m2
00:50 6 °C 3 °C 989.2 hPa S 5 km/h 10 km/h 81% 0 mm 0 W/m2
00:55 6 °C 3 °C 989.2 hPa SSE 2 km/h 10 km/h 81% 0 mm 0 W/m2
01:00 5 °C 2 °C 988.93 hPa Calm   5 km/h 80% 0 mm 0 W/m2
01:05 5 °C 2 °C 988.83 hPa SE 3 km/h 8 km/h 80% 0 mm 0 W/m2
01:10 5 °C 2 °C 989.1 hPa ESE 5 km/h 8 km/h 80% 0 mm 0 W/m2
01:15 5 °C 2 °C 989.03 hPa SE 3 km/h 10 km/h 80% 0 mm 0 W/m2
01:20 5 °C 2 °C 989.2 hPa SE 8 km/h 11 km/h 80% 0 mm 0 W/m2
01:25 6 °C 3 °C 989.1 hPa SE 10 km/h 13 km/h 81% 0 mm 0 W/m2
01:30 6 °C 3 °C 988.99 hPa SE 10 km/h 13 km/h 81% 0 mm 0 W/m2
01:35 6 °C 3 °C 989.1 hPa SE 8 km/h 13 km/h 81% 0 mm 0 W/m2
01:40 6 °C 3 °C 989.1 hPa SSE 3 km/h 13 km/h 82% 0 mm 0 W/m2
01:45 6 °C 3 °C 988.89 hPa SSE 5 km/h 10 km/h 82% 0 mm 0 W/m2
01:50 6 °C 3 °C 988.89 hPa SE 3 km/h 10 km/h 81% 0 mm 0 W/m2
01:55 6 °C 3 °C 988.62 hPa SE 2 km/h 6 km/h 81% 0 mm 0 W/m2
01:00 6 °C 3 °C 988.69 hPa SE 2 km/h 8 km/h 81% 0 mm 0 W/m2
01:05 6 °C 3 °C 988.42 hPa Calm   11 km/h 81% 0 mm 0 W/m2
01:10 6 °C 3 °C 988.32 hPa SSE 10 km/h 16 km/h 81% 0 mm 0 W/m2
01:15 6 °C 3 °C 988.49 hPa S 16 km/h 23 km/h 82% 0 mm 0 W/m2
01:20 7 °C 4 °C 988.28 hPa SSE 16 km/h 24 km/h 82% 0 mm 0 W/m2
01:25 7 °C 3 °C 988.39 hPa SSE 21 km/h 27 km/h 81% 0 mm 0 W/m2
01:30 7 °C 3 °C 988.42 hPa S 14 km/h 27 km/h 81% 0 mm 0 W/m2
01:35 7 °C 3 °C 988.22 hPa S 11 km/h 21 km/h 79% 0 mm 0 W/m2
01:40 6 °C 3 °C 988.22 hPa S 10 km/h 18 km/h 79% 0 mm 0 W/m2
01:45 6 °C 3 °C 988.28 hPa S 8 km/h 16 km/h 79% 0 mm 0 W/m2
01:50 6 °C 3 °C 988.59 hPa S 11 km/h 18 km/h 79% 0 mm 0 W/m2
01:55 6 °C 3 °C 988.39 hPa SSE 10 km/h 14 km/h 79% 0 mm 0 W/m2
02:00 6 °C 3 °C 988.22 hPa SSE 5 km/h 13 km/h 79% 0 mm 0 W/m2
02:05 6 °C 3 °C 988.22 hPa SSE 8 km/h 11 km/h 79% 0 mm 0 W/m2
02:10 6 °C 3 °C 988.22 hPa S 8 km/h 11 km/h 79% 0 mm 0 W/m2
02:15 6 °C 3 °C 988.28 hPa S 3 km/h 11 km/h 80% 0 mm 0 W/m2
02:20 6 °C 3 °C 988.32 hPa SSE 10 km/h 24 km/h 81% 0 mm 0 W/m2
02:25 6 °C 3 °C 988.11 hPa SSE 13 km/h 21 km/h 81% 0 mm 0 W/m2
02:30 6 °C 3 °C 988.11 hPa SSE 10 km/h 21 km/h 82% 0 mm 0 W/m2
02:35 6 °C 3 °C 988.01 hPa S 10 km/h 21 km/h 82% 0 mm 0 W/m2
02:40 6 °C 3 °C 987.91 hPa S 11 km/h 27 km/h 82% 0 mm 0 W/m2
02:45 6 °C 3 °C 988.11 hPa S 14 km/h 24 km/h 81% 0 mm 0 W/m2
02:50 6 °C 3 °C 987.91 hPa S 19 km/h 24 km/h 80% 0 mm 0 W/m2
02:55 6 °C 3 °C 987.91 hPa S 10 km/h 24 km/h 80% 0 mm 0 W/m2
03:00 6 °C 3 °C 988.01 hPa S 19 km/h 27 km/h 79% 0 mm 0 W/m2
03:05 6 °C 3 °C 987.81 hPa S 19 km/h 27 km/h 79% 0 mm 0 W/m2
03:10 6 °C 3 °C 988.01 hPa SSW 19 km/h 26 km/h 79% 0 mm 0 W/m2
03:15 6 °C 3 °C 988.11 hPa S 10 km/h 26 km/h 81% 0 mm 0 W/m2
03:20 6 °C 3 °C 988.11 hPa S 10 km/h 21 km/h 81% 0 mm 0 W/m2
03:25 6 °C 3 °C 988.18 hPa S 13 km/h 21 km/h 81% 0 mm 0 W/m2
03:30 6 °C 3 °C 988.01 hPa S 13 km/h 23 km/h 82% 0 mm 0 W/m2
03:35 6 °C 3 °C 988.11 hPa S 10 km/h 19 km/h 82% 0 mm 0 W/m2
03:40 6 °C 3 °C 988.11 hPa S 11 km/h 14 km/h 83% 0 mm 0 W/m2
03:45 6 °C 3 °C 988.11 hPa S 11 km/h 19 km/h 83% 0 mm 0 W/m2
03:50 6 °C 3 °C 988.28 hPa S 14 km/h 19 km/h 83% 0 mm 0 W/m2
03:55 6 °C 3 °C 988.42 hPa S 10 km/h 19 km/h 84% 0 mm 0 W/m2
04:00 6 °C 3 °C 988.49 hPa S 13 km/h 19 km/h 84% 0 mm 0 W/m2
04:05 6 °C 3 °C 988.52 hPa S 10 km/h 19 km/h 85% 0 mm 0 W/m2
04:10 6 °C 3 °C 988.49 hPa S 13 km/h 19 km/h 85% 0 mm 0 W/m2
04:15 6 °C 3 °C 988.69 hPa SSE 13 km/h 19 km/h 85% 0 mm 0 W/m2
04:20 6 °C 3 °C 988.59 hPa SE 10 km/h 14 km/h 85% 0 mm 0 W/m2
04:25 6 °C 3 °C 988.89 hPa SE 8 km/h 16 km/h 85% 0 mm 0 W/m2
04:30 6 °C 3 °C 988.79 hPa SSE 5 km/h 13 km/h 85% 0 mm 0 W/m2
04:35 5 °C 3 °C 988.89 hPa SSE 8 km/h 18 km/h 85% 0 mm 0 W/m2
04:40 6 °C 3 °C 988.99 hPa SSE 10 km/h 16 km/h 85% 0 mm 0 W/m2
04:45 6 °C 3 °C 989.1 hPa S 13 km/h 16 km/h 85% 0 mm 0 W/m2
04:50 6 °C 4 °C 989.03 hPa S 10 km/h 19 km/h 86% 0 mm 0 W/m2
04:55 6 °C 4 °C 989.4 hPa SSE 11 km/h 14 km/h 86% 0 mm 0 W/m2
05:00 6 °C 4 °C 989.3 hPa SE 14 km/h 21 km/h 85% 0 mm 0 W/m2
05:05 6 °C 4 °C 989.3 hPa SSE 13 km/h 21 km/h 85% 0 mm 0 W/m2
05:10 6 °C 3 °C 989.3 hPa S 10 km/h 21 km/h 84% 0 mm 0 W/m2
05:15 6 °C 3 °C 989.4 hPa SSE 10 km/h 16 km/h 84% 0 mm 0 W/m2
05:20 6 °C 3 °C 989.4 hPa SE 10 km/h 16 km/h 83% 0 mm 0 W/m2
05:25 6 °C 3 °C 989.6 hPa S 8 km/h 18 km/h 83% 0 mm 0 W/m2
05:30 6 °C 3 °C 989.5 hPa SSW 5 km/h 13 km/h 83% 0 mm 0 W/m2
05:35 6 °C 3 °C 989.71 hPa SSW 10 km/h 13 km/h 83% 0 mm 0 W/m2
05:40 6 °C 3 °C 989.6 hPa S 10 km/h 14 km/h 83% 0 mm 0 W/m2
05:45 6 °C 3 °C 989.6 hPa S 8 km/h 18 km/h 83% 0 mm 0 W/m2
05:50 6 °C 3 °C 989.91 hPa S 11 km/h 16 km/h 83% 0 mm 0 W/m2
05:55 6 °C 3 °C 990.01 hPa S 5 km/h 16 km/h 84% 0 mm 0 W/m2
06:00 6 °C 3 °C 990.32 hPa SSW 5 km/h 13 km/h 84% 0 mm 0 W/m2
06:05 6 °C 3 °C 990.21 hPa W 10 km/h 13 km/h 84% 0 mm 0 W/m2
06:10 6 °C 3 °C 990.21 hPa WSW 14 km/h 24 km/h 84% 0 mm 0 W/m2
06:15 6 °C 3 °C 990.01 hPa SSW 16 km/h 24 km/h 84% 0 mm 0 W/m2
06:20 6 °C 3 °C 990.01 hPa SSW 11 km/h 24 km/h 84% 0 mm 0 W/m2
06:25 6 °C 3 °C 990.11 hPa SSW 10 km/h 19 km/h 84% 0 mm 0 W/m2
06:30 6 °C 3 °C 990.18 hPa SSW 11 km/h 27 km/h 83% 0 mm 0 W/m2
06:35 6 °C 3 °C 990.18 hPa SSW 10 km/h 21 km/h 83% 0 mm 0 W/m2
06:40 6 °C 3 °C 990.28 hPa SSW 11 km/h 23 km/h 82% 0 mm 0 W/m2
06:45 6 °C 3 °C 990.38 hPa SSW 10 km/h 18 km/h 81% 0 mm 0 W/m2
06:50 6 °C 3 °C 990.48 hPa SSW 11 km/h 24 km/h 81% 0 mm 0 W/m2
06:55 6 °C 3 °C 990.62 hPa S 10 km/h 16 km/h 80% 0 mm 0 W/m2
07:00 6 °C 3 °C 990.52 hPa S 5 km/h 16 km/h 80% 0 mm 0 W/m2
07:05 6 °C 3 °C 990.62 hPa S 5 km/h 10 km/h 80% 0 mm 0 W/m2
07:10 6 °C 3 °C 990.69 hPa S 5 km/h 10 km/h 80% 0 mm 0 W/m2
07:15 6 °C 3 °C 990.48 hPa S 11 km/h 19 km/h 81% 0 mm 0 W/m2
07:20 6 °C 3 °C 990.21 hPa S 10 km/h 21 km/h 81% 0 mm 0 W/m2
07:25 6 °C 3 °C 990.21 hPa S 10 km/h 11 km/h 81% 0 mm 0 W/m2
07:30 6 °C 3 °C 990.42 hPa S 10 km/h 92 km/h 81% 0 mm 0 W/m2
07:35 6 °C -24 °C 990.59 hPa S 93 km/h 93 km/h 10% 0 mm 0 W/m2
07:40 5 °C 2 °C 990.59 hPa S 10 km/h 93 km/h 82% 0 mm 0 W/m2
07:45 5 °C 2 °C 990.72 hPa S 16 km/h 21 km/h 82% 0 mm 0 W/m2
07:50 5 °C 2 °C 990.79 hPa S 13 km/h 21 km/h 83% 0 mm 0 W/m2
07:55 5 °C 3 °C 990.89 hPa S 13 km/h 18 km/h 84% 0 mm 0 W/m2
08:00 5 °C 3 °C 990.99 hPa S 13 km/h 19 km/h 84% 0 mm 0 W/m2
08:05 5 °C 3 °C 991.09 hPa S 13 km/h 21 km/h 85% 0 mm 0 W/m2
08:10 5 °C 3 °C 991.13 hPa S 13 km/h 23 km/h 85% 0 mm 0 W/m2
08:15 5 °C 3 °C 991.09 hPa SSE 14 km/h 21 km/h 85% 0 mm 0 W/m2
08:20 6 °C 3 °C 991.2 hPa SSE 11 km/h 21 km/h 85% 0 mm 0 W/m2
08:25 6 °C 3 °C 991.2 hPa SSE 13 km/h 21 km/h 85% 0 mm 0 W/m2
08:30 6 °C 3 °C 991.4 hPa SSE 10 km/h 19 km/h 84% 0 mm 0 W/m2
08:35 6 °C 3 °C 991.23 hPa S 11 km/h 19 km/h 84% 0 mm 0 W/m2
08:40 6 °C 3 °C 991.23 hPa S 13 km/h 21 km/h 82% 0 mm 0 W/m2
08:45 6 °C 3 °C 991.4 hPa S 14 km/h 21 km/h 81% 0 mm 0 W/m2
08:50 6 °C 3 °C 991.2 hPa S 16 km/h 27 km/h 81% 0 mm 0 W/m2
08:55 6 °C 3 °C 991.4 hPa S 16 km/h 27 km/h 80% 0 mm 0 W/m2
09:00 6 °C 3 °C 991.5 hPa S 16 km/h 27 km/h 79% 0 mm 0 W/m2
09:05 6 °C 3 °C 991.5 hPa SSE 16 km/h 24 km/h 79% 0 mm 0 W/m2
09:10 7 °C 3 °C 991.23 hPa SE 14 km/h 31 km/h 79% 0 mm 0 W/m2
09:15 7 °C 3 °C 991.6 hPa SSE 16 km/h 32 km/h 78% 0 mm 0 W/m2
09:20 7 °C 3 °C 991.6 hPa S 16 km/h 27 km/h 78% 0 mm 0 W/m2
09:25 7 °C 3 °C 991.5 hPa S 16 km/h 27 km/h 76% 0 mm 0 W/m2
09:30 7 °C 3 °C 991.6 hPa S 14 km/h 24 km/h 76% 0 mm 0 W/m2
09:35 7 °C 3 °C 991.67 hPa S 16 km/h 27 km/h 76% 0 mm 0 W/m2
09:40 8 °C 3 °C 991.7 hPa S 16 km/h 26 km/h 75% 0 mm 0 W/m2
09:45 8 °C 4 °C 991.7 hPa S 13 km/h 26 km/h 75% 0 mm 0 W/m2
09:50 8 °C 3 °C 991.7 hPa S 13 km/h 26 km/h 74% 0 mm 0 W/m2
09:55 8 °C 4 °C 991.7 hPa S 13 km/h 24 km/h 74% 0 mm 0 W/m2
10:00 8 °C 3 °C 991.97 hPa S 19 km/h 24 km/h 73% 0 mm 0 W/m2
10:05 8 °C 3 °C 992.01 hPa S 13 km/h 27 km/h 72% 0 mm 0 W/m2
10:10 8 °C 3 °C 991.91 hPa SSE 16 km/h 27 km/h 72% 0 mm 0 W/m2
10:15 8 °C 4 °C 992.01 hPa SSE 14 km/h 27 km/h 72% 0 mm 0 W/m2
10:20 9 °C 4 °C 991.91 hPa SSE 16 km/h 27 km/h 72% 0 mm 0 W/m2
10:25 9 °C 4 °C 991.91 hPa S 13 km/h 27 km/h 71% 0 mm 0 W/m2
10:30 9 °C 4 °C 991.97 hPa SSW 19 km/h 32 km/h 70% 0 mm 0 W/m2
10:35 9 °C 4 °C 992.01 hPa S 16 km/h 32 km/h 70% 0 mm 0 W/m2
10:40 9 °C 4 °C 991.91 hPa S 19 km/h 24 km/h 69% 0 mm 0 W/m2
10:45 9 °C 4 °C 991.81 hPa S 16 km/h 27 km/h 68% 0 mm 0 W/m2
10:50 9 °C 4 °C 991.7 hPa S 19 km/h 29 km/h 68% 0 mm 0 W/m2
10:55 10 °C 4 °C 991.53 hPa S 13 km/h 29 km/h 68% 0 mm 0 W/m2
11:00 10 °C 4 °C 991.81 hPa SSW 14 km/h 21 km/h 67% 0 mm 0 W/m2
11:05 10 °C 4 °C 991.91 hPa SSW 11 km/h 21 km/h 67% 0 mm 0 W/m2
11:10 10 °C 3 °C 991.81 hPa SSW 14 km/h 32 km/h 63% 0 mm 0 W/m2
11:15 10 °C 3 °C 991.81 hPa SSW 23 km/h 34 km/h 63% 0 mm 0 W/m2
11:20 10 °C 3 °C 991.81 hPa SW 13 km/h 34 km/h 62% 0 mm 0 W/m2
11:25 10 °C 3 °C 991.7 hPa SW 19 km/h 31 km/h 62% 0 mm 0 W/m2
11:30 10 °C 3 °C 991.87 hPa S 23 km/h 34 km/h 60% 0 mm 0 W/m2
11:35 10 °C 3 °C 991.81 hPa S 16 km/h 34 km/h 60% 0 mm 0 W/m2
11:40 11 °C 3 °C 991.81 hPa SSW 16 km/h 32 km/h 60% 0 mm 0 W/m2
11:45 11 °C 3 °C 991.7 hPa SSW 19 km/h 27 km/h 60% 0 mm 0 W/m2
11:50 11 °C 3 °C 991.53 hPa SSW 23 km/h 43 km/h 59% 0 mm 0 W/m2
11:55 11 °C 3 °C 991.5 hPa SSW 21 km/h 34 km/h 59% 0 mm 0 W/m2
12:00 11 °C 3 °C 991.7 hPa SSW 11 km/h 34 km/h 58% 0 mm 0 W/m2
12:05 11 °C 3 °C 991.77 hPa SSW 10 km/h 37 km/h 59% 0 mm 0 W/m2
12:10 11 °C 3 °C 991.91 hPa SSW 14 km/h 37 km/h 56% 0 mm 0 W/m2
12:15 11 °C 2 °C 991.6 hPa S 16 km/h 32 km/h 55% 0 mm 0 W/m2
12:20 11 °C 3 °C 991.7 hPa SSW 14 km/h 32 km/h 57% 0 mm 0 W/m2
12:25 11 °C 3 °C 991.6 hPa SW 16 km/h 34 km/h 55% 0 mm 0 W/m2
12:30 11 °C 3 °C 991.7 hPa SSW 24 km/h 48 km/h 56% 0 mm 0 W/m2
12:35 11 °C 2 °C 991.81 hPa SW 23 km/h 48 km/h 54% 0 mm 0 W/m2
12:40 11 °C 2 °C 991.7 hPa SW 11 km/h 34 km/h 54% 0 mm 0 W/m2
12:45 11 °C 2 °C 991.81 hPa SW 16 km/h 29 km/h 56% 0 mm 0 W/m2
12:50 11 °C 3 °C 991.91 hPa SW 24 km/h 34 km/h 57% 0 mm 0 W/m2
12:55 11 °C 3 °C 992.01 hPa SW 16 km/h 34 km/h 57% 0 mm 0 W/m2
13:00 11 °C 2 °C 991.91 hPa SSW 26 km/h 39 km/h 55% 0 mm 0 W/m2
13:05 11 °C 2 °C 991.64 hPa SW 24 km/h 39 km/h 55% 0 mm 0 W/m2
13:10 11 °C 3 °C 991.7 hPa SW 19 km/h 34 km/h 57% 0 mm 0 W/m2
13:15 11 °C 3 °C 991.6 hPa SW 16 km/h 32 km/h 56% 0 mm 0 W/m2
13:20 11 °C 3 °C 991.7 hPa SSW 13 km/h 26 km/h 56% 0 mm 0 W/m2
13:25 11 °C 2 °C 991.81 hPa S 16 km/h 27 km/h 55% 0 mm 0 W/m2
13:30 11 °C 2 °C 991.7 hPa S 14 km/h 27 km/h 57% 0 mm 0 W/m2
13:35 11 °C 3 °C 991.7 hPa SSW 16 km/h 29 km/h 59% 0 mm 0 W/m2
13:40 11 °C 3 °C 991.6 hPa SSW 10 km/h 21 km/h 60% 0 mm 0 W/m2
13:45 11 °C 3 °C 991.7 hPa SSW 10 km/h 21 km/h 60% 0 mm 0 W/m2
13:50 11 °C 3 °C 991.81 hPa S 11 km/h 31 km/h 59% 0 mm 0 W/m2
13:55 11 °C 3 °C 991.7 hPa S 16 km/h 32 km/h 57% 0 mm 0 W/m2
14:00 11 °C 2 °C 991.81 hPa S 13 km/h 27 km/h 56% 0 mm 0 W/m2
14:05 11 °C 2 °C 991.77 hPa SSW 16 km/h 27 km/h 57% 0 mm 0 W/m2
14:10 11 °C 2 °C 991.6 hPa SW 16 km/h 27 km/h 56% 0 mm 0 W/m2
14:15 11 °C 2 °C 991.5 hPa SSW 14 km/h 34 km/h 55% 0 mm 0 W/m2
14:20 11 °C 2 °C 991.5 hPa SW 14 km/h 27 km/h 56% 0 mm 0 W/m2
14:25 11 °C 2 °C 991.5 hPa SW 14 km/h 26 km/h 57% 0 mm 0 W/m2
14:30 10 °C 2 °C 991.4 hPa S 21 km/h 37 km/h 56% 0 mm 0 W/m2
14:35 10 °C 2 °C 991.5 hPa S 16 km/h 27 km/h 57% 0 mm 0 W/m2
14:40 10 °C 2 °C 991.4 hPa SSW 14 km/h 37 km/h 57% 0 mm 0 W/m2
14:45 10 °C 2 °C 991.6 hPa SSW 19 km/h 37 km/h 57% 0 mm 0 W/m2
14:50 10 °C 2 °C 991.5 hPa SSW 10 km/h 37 km/h 57% 0 mm 0 W/m2
14:55 10 °C 3 °C 991.3 hPa SSW 16 km/h 23 km/h 59% 0 mm 0 W/m2
15:00 10 °C 3 °C 991.43 hPa SSW 13 km/h 26 km/h 59% 0 mm 0 W/m2
15:05 10 °C 2 °C 991.7 hPa SSW 14 km/h 24 km/h 58% 0 mm 0 W/m2
15:10 10 °C 2 °C 991.7 hPa S 10 km/h 21 km/h 58% 0 mm 0 W/m2
15:15 10 °C 3 °C 991.77 hPa S 8 km/h 21 km/h 59% 0 mm 0 W/m2
15:20 10 °C 2 °C 991.81 hPa S 11 km/h 23 km/h 59% 0 mm 0 W/m2
15:25 10 °C 3 °C 991.77 hPa S 5 km/h 21 km/h 60% 0 mm 0 W/m2
15:30 10 °C 3 °C 992.01 hPa SW 10 km/h 21 km/h 61% 0 mm 0 W/m2
15:35 10 °C 3 °C 991.97 hPa SW 5 km/h 18 km/h 63% 0 mm 0 W/m2
15:40 9 °C 3 °C 991.91 hPa SSW 11 km/h 18 km/h 65% 0 mm 0 W/m2
15:45 9 °C 4 °C 991.81 hPa SSW 10 km/h 19 km/h 69% 0 mm 0 W/m2
15:50 9 °C 4 °C 992.01 hPa SSW 13 km/h 21 km/h 72% 0 mm 0 W/m2
15:55 9 °C 4 °C 991.97 hPa SSW 11 km/h 21 km/h 72% 0 mm 0 W/m2
16:00 9 °C 4 °C 991.91 hPa SSW 13 km/h 26 km/h 73% 0 mm 0 W/m2
16:05 9 °C 4 °C 992.08 hPa SSW 13 km/h 24 km/h 73% 0 mm 0 W/m2
16:10 9 °C 4 °C 991.91 hPa SSW 16 km/h 27 km/h 73% 0 mm 0 W/m2
16:15 9 °C 4 °C 991.81 hPa SSW 10 km/h 24 km/h 72% 0 mm 0 W/m2
16:20 9 °C 4 °C 991.97 hPa SSW 13 km/h 31 km/h 72% 0 mm 0 W/m2
16:25 9 °C 4 °C 991.97 hPa SSW 8 km/h 32 km/h 71% 0 mm 0 W/m2
16:30 9 °C 4 °C 992.11 hPa SW 10 km/h 21 km/h 71% 0 mm 0 W/m2
16:35 9 °C 4 °C 992.18 hPa SW 14 km/h 24 km/h 71% 0 mm 0 W/m2
16:40 9 °C 4 °C 992.11 hPa SSW 11 km/h 26 km/h 70% 0 mm 0 W/m2
16:45 9 °C 4 °C 992.11 hPa SSW 19 km/h 32 km/h 70% 0 mm 0 W/m2
16:50 9 °C 4 °C 991.91 hPa S 11 km/h 32 km/h 70% 0 mm 0 W/m2
16:55 9 °C 4 °C 991.81 hPa S 10 km/h 19 km/h 70% 0 mm 0 W/m2
17:00 9 °C 4 °C 991.91 hPa SSW 5 km/h 19 km/h 71% 0 mm 0 W/m2
17:05 9 °C 4 °C 991.91 hPa S 14 km/h 18 km/h 71% 0 mm 0 W/m2
17:10 9 °C 4 °C 992.18 hPa S 8 km/h 21 km/h 71% 0 mm 0 W/m2
17:15 9 °C 4 °C 992.11 hPa SSW 10 km/h 19 km/h 71% 0 mm 0 W/m2
17:20 8 °C 3 °C 992.21 hPa SW 10 km/h 23 km/h 71% 0 mm 0 W/m2
17:25 8 °C 3 °C 992.11 hPa SW 14 km/h 27 km/h 71% 0 mm 0 W/m2
17:35 8 °C 3 °C 992.31 hPa SSW 8 km/h 27 km/h 72% 0 mm 0 W/m2
17:40 8 °C 3 °C 992.38 hPa SSW 8 km/h 23 km/h 72% 0 mm 0 W/m2
17:45 8 °C 3 °C 992.21 hPa SSW 11 km/h 19 km/h 72% 0 mm 0 W/m2
17:50 8 °C 3 °C 992.18 hPa S 10 km/h 19 km/h 72% 0 mm 0 W/m2
17:55 8 °C 3 °C 992.38 hPa S 5 km/h 18 km/h 72% 0 mm 0 W/m2
18:00 8 °C 3 °C 992.28 hPa SSW 11 km/h 21 km/h 72% 0 mm 0 W/m2
18:05 8 °C 3 °C 992.21 hPa SSW 8 km/h 16 km/h 72% 0 mm 0 W/m2
18:10 8 °C 3 °C 992.42 hPa SSW 11 km/h 18 km/h 72% 0 mm 0 W/m2
18:15 8 °C 3 °C 992.31 hPa S 10 km/h 23 km/h 72% 0 mm 0 W/m2
18:20 8 °C 3 °C 992.58 hPa SSW 11 km/h 24 km/h 72% 0 mm 0 W/m2
18:25 8 °C 3 °C 992.42 hPa S 10 km/h 21 km/h 72% 0 mm 0 W/m2
18:30 8 °C 3 °C 992.48 hPa SSW 19 km/h 24 km/h 72% 0 mm 0 W/m2
18:35 8 °C 3 °C 992.52 hPa SSW 16 km/h 26 km/h 72% 0 mm 0 W/m2
18:40 8 °C 3 °C 992.52 hPa SSW 13 km/h 26 km/h 72% 0 mm 0 W/m2
18:45 8 °C 3 °C 992.42 hPa S 11 km/h 23 km/h 72% 0 mm 0 W/m2
18:50 8 °C 3 °C 992.31 hPa S 5 km/h 21 km/h 73% 0 mm 0 W/m2
18:55 7 °C 3 °C 992.48 hPa S 5 km/h 13 km/h 73% 0 mm 0 W/m2
19:00 7 °C 3 °C 992.52 hPa S 5 km/h 13 km/h 73% 0 mm 0 W/m2
19:05 7 °C 3 °C 992.69 hPa S 8 km/h 13 km/h 73% 0 mm 0 W/m2
19:10 7 °C 3 °C 992.58 hPa S 11 km/h 23 km/h 74% 0 mm 0 W/m2
19:15 7 °C 3 °C 992.42 hPa S 11 km/h 21 km/h 74% 0 mm 0 W/m2
19:20 8 °C 3 °C 992.42 hPa SSW 11 km/h 19 km/h 75% 0 mm 0 W/m2
19:25 8 °C 3 °C 992.62 hPa SW 10 km/h 21 km/h 75% 0 mm 0 W/m2
19:30 8 °C 3 °C 992.79 hPa SSW 8 km/h 16 km/h 75% 0 mm 0 W/m2
19:35 8 °C 3 °C 992.62 hPa SSW 13 km/h 24 km/h 75% 0 mm 0 W/m2
19:40 8 °C 3 °C 992.69 hPa SSW 11 km/h 27 km/h 75% 0 mm 0 W/m2
19:45 8 °C 3 °C 992.62 hPa SW 14 km/h 27 km/h 75% 0 mm 0 W/m2
19:50 8 °C 3 °C 992.62 hPa SSW 13 km/h 24 km/h 75% 0 mm 0 W/m2
19:55 8 °C 3 °C 992.52 hPa SSW 14 km/h 24 km/h 75% 0 mm 0 W/m2
20:00 8 °C 4 °C 992.58 hPa SSW 13 km/h 27 km/h 76% 0 mm 0 W/m2
20:05 8 °C 3 °C 992.58 hPa SSW 13 km/h 24 km/h 75% 0 mm 0 W/m2
20:10 8 °C 3 °C 992.72 hPa S 14 km/h 23 km/h 75% 0 mm 0 W/m2
20:15 8 °C 3 °C 992.69 hPa SSW 14 km/h 24 km/h 75% 0 mm 0 W/m2
20:20 8 °C 3 °C 992.89 hPa SSW 13 km/h 24 km/h 75% 0 mm 0 W/m2
20:25 8 °C 3 °C 992.72 hPa SW 10 km/h 23 km/h 75% 0 mm 0 W/m2
20:30 8 °C 3 °C 992.89 hPa SSW 13 km/h 21 km/h 74% 0 mm 0 W/m2
20:35 8 °C 3 °C 992.79 hPa S 8 km/h 24 km/h 74% 0 mm 0 W/m2
20:40 8 °C 3 °C 992.79 hPa S 10 km/h 19 km/h 73% 0 mm 0 W/m2
20:45 8 °C 3 °C 992.89 hPa S 10 km/h 19 km/h 73% 0 mm 0 W/m2
20:50 8 °C 3 °C 993.09 hPa S 10 km/h 23 km/h 72% 0 mm 0 W/m2
20:55 8 °C 3 °C 992.99 hPa SW 11 km/h 21 km/h 72% 0 mm 0 W/m2
21:00 8 °C 3 °C 993.16 hPa SSW 10 km/h 21 km/h 71% 0 mm 0 W/m2
21:05 8 °C 3 °C 992.89 hPa S 8 km/h 13 km/h 70% 0 mm 0 W/m2
21:10 8 °C 3 °C 992.89 hPa SSW 10 km/h 26 km/h 71% 0 mm 0 W/m2
21:15 8 °C 3 °C 992.89 hPa SW 13 km/h 24 km/h 72% 0 mm 0 W/m2
21:20 8 °C 4 °C 992.82 hPa SW 14 km/h 24 km/h 75% 0 mm 0 W/m2
21:25 8 °C 4 °C 992.89 hPa SW 10 km/h 27 km/h 76% 0 mm 0 W/m2
21:30 8 °C 4 °C 993.09 hPa SW 11 km/h 19 km/h 77% 0 mm 0 W/m2
21:35 8 °C 4 °C 993.19 hPa SSW 11 km/h 19 km/h 77% 0 mm 0 W/m2
21:40 8 °C 4 °C 993.09 hPa SSW 10 km/h 21 km/h 78% 0 mm 0 W/m2
21:45 8 °C 4 °C 992.99 hPa S 10 km/h 29 km/h 79% 0 mm 0 W/m2
21:50 8 °C 4 °C 992.99 hPa S 11 km/h 19 km/h 79% 0 mm 0 W/m2
21:55 7 °C 4 °C 992.99 hPa S 10 km/h 18 km/h 78% 0 mm 0 W/m2
22:00 7 °C 4 °C 993.02 hPa S 11 km/h 16 km/h 79% 0 mm 0 W/m2
22:05 7 °C 3 °C 993.09 hPa S 10 km/h 19 km/h 79% 0 mm 0 W/m2
22:10 7 °C 3 °C 993.09 hPa S 10 km/h 23 km/h 80% 0 mm 0 W/m2
22:15 7 °C 4 °C 992.92 hPa S 11 km/h 16 km/h 81% 0 mm 0 W/m2
Garrymore Weather Station, Geashill, Tullamore, Offaly, Ireland
Compliments of Weather Underground - 4 mb